Terminal Aerodrome Forecast
Issued by NWS Tuscon, AZ

Home | Current Version | Previous Version | Text Only | Print | Product List | Glossary On
Versions: 1 2 3 4 5 6 7 8 9 10 11 12
078
FTUS45 KTWC 141738
TAFDUG
TAF
KDUG 141738Z 1418/1518 15010KT P6SM FEW080 SCT130
     FM142000 27008KT P6SM BKN070
     FM142200 36008KT P6SM VCSH SCT050 BKN080
     FM150200 07011KT P6SM SCT100
     FM150500 09016G25KT P6SM SKC=

USA.gov is the U.S. government's official web portal to all federal, state and local government web resources and services.